Vremea acum in Alba Iulia - Romania

Vrei sa afli care e starea vremii acum in Alba - Romania? Dorim sa iti furnizam starea vremii pentru Alba - Romania. Starea vremii Alba - Romania pentru astazi.

Vremea acum in Alba Iulia

Temperatura: -5 °C

Se simte ca: -6.6 °C
Innorat: 0 %
Precipitatii: 0 %
Presiune atmosferica: 1019 hPa
Umiditate: 79%
Vizibilitate: 10 km
Vantul bate din W cu 4 km/h

Evolutia vremii in Alba Iulia pe ore

Ora: 00:00
Parțial noros
Temperatura: -1.9°C
Sansa de precipitatii: 0%
Ora Descriere Temp Se simte Precipitatii Umiditate Vant
00:00Parțial noros-1.9°-2.1°0%79%E 2.5 KM/H
01:00Parțial noros-1.8°-2.4°0%79%E 2.9 KM/H
02:00Parțial noros-1.8°-2.6°0%79%E 3.2 KM/H
03:00Parțial noros-2.1°-3.1°0%80%E 3.6 KM/H
04:00Parțial noros-2.3°-3.7°0%81%E 4 KM/H
05:00Parțial noros-2.6°-4.2°0%82%E 4.3 KM/H
06:00Parțial noros-2.8°-4.5°0%83%ENE 4.3 KM/H
07:00Parțial noros-3.1°-4.7°0%84%ENE 4.3 KM/H
08:00Parțial noros-3.3°-5°0%86%ENE 4.3 KM/H
09:00Cer acoperit-2.3°-4.3°0%81%ENE 5.4 KM/H
10:00Parțial noros-1.2°-3.7°0%77%ENE 6.8 KM/H
11:00Cer acoperit-0.2°-3°0%73%ENE 7.9 KM/H
12:00Parțial noros0.1°-2.8°0%73%ENE 8.6 KM/H
13:00Cer acoperit0.5°-2.5°0%72%ENE 9 KM/H
14:00Parțial noros0.8°-2.3°0%72%ENE 9.7 KM/H
15:00Cer acoperit-3°0%77%NE 9 KM/H
16:00Parțial noros-0.7°-3.8°0%82%NE 8.6 KM/H
17:00Cer acoperit-1.5°-4.5°0%87%NE 7.9 KM/H
18:00Noros-1.5°-4.4°0%85%NE 7.6 KM/H
19:00Cer acoperit-1.5°-4.2°0%83%NNE 7.2 KM/H
20:00Noros-1.5°-4.1°0%80%NNE 6.8 KM/H
21:00Ninsori moderate-2.8°-4.6°22%80%NNE 7.6 KM/H
22:00Noros-4.2°-5°44%80%NNE 7.9 KM/H
23:00Ninsori moderate-5.5°-5.5°66%80%NNE 8.6 KM/H